Time;durP1;ratioP1;P1;durP2;ratioP2;P2;SDS_P1;SDS_P2;PMS_P1;PMS_P2;Temp;Humidity;BMP_temperature;BMP_pressure;BME280_temperature;BME280_humidity;BME280_pressure;Samples;Min_cycle;Max_cycle;Signal;HPM_P1;HPM_P2
2022/07/26 00:02:57;;;;;;;11.12;7.87;;;;;;;17.05;100.00;99486.67;1784388;80;21184;-80
2022/07/26 00:06:00;;;;;;;11.90;8.93;;;;;;;17.03;100.00;99480.56;1785090;80;21169;-80
2022/07/26 00:08:55;;;;;;;11.63;8.65;;;;;;;17.04;100.00;99480.86;1785756;80;21188;-80
2022/07/26 00:11:41;;;;;;;9.80;8.45;;;;;;;17.07;100.00;99485.05;1784823;79;21208;-80
2022/07/26 00:14:34;;;;;;;11.95;8.33;;;;;;;17.08;100.00;99478.47;1784278;80;21701;-81
2022/07/26 00:17:21;;;;;;;13.53;8.03;;;;;;;17.08;100.00;99476.55;1785728;80;21153;-81
2022/07/26 00:20:14;;;;;;;10.35;7.67;;;;;;;17.09;100.00;99476.00;1784120;80;21185;-81
2022/07/26 00:23:22;;;;;;;9.38;8.03;;;;;;;17.11;100.00;99473.83;1784484;80;21168;-80
2022/07/26 00:26:27;;;;;;;9.55;8.53;;;;;;;17.15;100.00;99473.66;1785073;79;21200;-81
2022/07/26 00:29:32;;;;;;;11.73;8.83;;;;;;;17.16;100.00;99464.81;1780770;80;21228;-81
2022/07/26 00:32:38;;;;;;;9.58;8.45;;;;;;;17.18;100.00;99470.96;1771174;81;21137;-81
2022/07/26 00:35:44;;;;;;;10.05;7.67;;;;;;;17.21;100.00;99471.84;1771304;81;21735;-80
2022/07/26 00:38:49;;;;;;;9.03;7.95;;;;;;;17.23;100.00;99465.55;1772044;81;21122;-81
2022/07/26 00:41:55;;;;;;;11.73;7.15;;;;;;;17.24;100.00;99461.70;1771449;80;21770;-81
2022/07/26 00:45:01;;;;;;;11.33;8.63;;;;;;;17.25;100.00;99460.07;1771872;81;21197;-81
2022/07/26 00:48:00;;;;;;;11.00;8.83;;;;;;;17.24;100.00;99450.66;1771973;81;21134;-81
2022/07/26 00:50:53;;;;;;;12.75;8.43;;;;;;;17.25;100.00;99456.47;1771115;81;21233;-81
2022/07/26 00:53:59;;;;;;;10.20;8.55;;;;;;;17.23;100.00;99454.50;1771846;81;21211;-81
2022/07/26 00:57:04;;;;;;;10.65;8.65;;;;;;;17.17;100.00;99448.53;1771482;80;21217;-81
2022/07/26 01:00:12;;;;;;;12.68;8.13;;;;;;;17.15;100.00;99458.45;1771763;81;21563;-81
2022/07/26 01:03:18;;;;;;;9.20;8.28;;;;;;;17.10;100.00;99448.12;1772103;81;21161;-81
2022/07/26 01:06:26;;;;;;;15.35;9.53;;;;;;;17.05;100.00;99456.28;1770963;81;21754;-81
2022/07/26 01:09:31;;;;;;;11.38;8.70;;;;;;;17.03;100.00;99449.30;1771690;81;21138;-81
2022/07/26 01:12:37;;;;;;;9.60;8.50;;;;;;;17.01;100.00;99444.03;1771266;80;21189;-81
2022/07/26 01:15:43;;;;;;;11.22;9.10;;;;;;;17.01;100.00;99439.89;1771337;81;21197;-81
2022/07/26 01:18:49;;;;;;;13.03;9.03;;;;;;;16.99;100.00;99440.68;1771997;81;21161;-81
2022/07/26 01:21:58;;;;;;;16.70;10.08;;;;;;;16.98;100.00;99438.97;1770596;81;21169;-81
2022/07/26 01:24:59;;;;;;;14.65;8.45;;;;;;;16.97;100.00;99439.22;1770526;81;21189;-80
2022/07/26 01:27:53;;;;;;;10.90;8.15;;;;;;;16.92;100.00;99437.17;1771146;80;21185;-80
2022/07/26 01:30:39;;;;;;;9.85;8.23;;;;;;;16.91;100.00;99438.27;1772009;80;21236;-81
2022/07/26 01:33:45;;;;;;;12.03;8.95;;;;;;;16.88;100.00;99433.20;1771225;81;21154;-80
2022/07/26 01:36:53;;;;;;;11.20;8.98;;;;;;;16.85;100.00;99436.47;1771028;81;21845;-80
2022/07/26 01:39:59;;;;;;;11.38;8.45;;;;;;;16.80;100.00;99438.56;1772143;81;21193;-80
2022/07/26 01:43:07;;;;;;;11.78;9.28;;;;;;;16.77;100.00;99432.66;1771212;80;21177;-81
2022/07/26 01:46:14;;;;;;;13.38;9.55;;;;;;;16.74;100.00;99430.37;1770968;81;21189;-80
2022/07/26 01:49:20;;;;;;;12.95;9.03;;;;;;;16.71;100.00;99433.05;1772090;81;21193;-80
2022/07/26 01:52:25;;;;;;;10.50;8.03;;;;;;;16.70;100.00;99431.88;1772025;81;21201;-80
2022/07/26 01:55:31;;;;;;;14.00;8.40;;;;;;;16.71;100.00;99430.28;1771562;81;21742;-80
2022/07/26 01:58:36;;;;;;;10.78;9.10;;;;;;;16.70;100.00;99429.99;1771068;80;21224;-80
2022/07/26 02:01:42;;;;;;;13.48;8.40;;;;;;;16.69;100.00;99432.42;1770663;81;21727;-80
2022/07/26 02:05:00;;;;;;;13.75;9.65;;;;;;;16.70;100.00;99436.02;1770669;81;21193;-80
2022/07/26 02:08:07;;;;;;;12.37;9.40;;;;;;;16.68;100.00;99440.41;1770518;81;21166;-80
2022/07/26 02:11:13;;;;;;;11.90;9.68;;;;;;;16.66;100.00;99436.23;1770513;81;21722;-80
2022/07/26 02:14:19;;;;;;;14.23;10.35;;;;;;;16.61;100.00;99436.39;1770809;80;21636;-80
2022/07/26 02:17:25;;;;;;;12.75;9.75;;;;;;;16.59;100.00;99439.91;1771994;81;21605;-80
2022/07/26 02:20:32;;;;;;;14.78;9.80;;;;;;;16.57;100.00;99444.84;1771501;81;21216;-80
2022/07/26 02:23:37;;;;;;;12.55;10.20;;;;;;;16.53;100.00;99449.15;1771536;81;21769;-80
2022/07/26 02:26:43;;;;;;;15.13;10.10;;;;;;;16.49;100.00;99445.72;1770595;81;21702;-80
2022/07/26 02:29:49;;;;;;;12.93;10.23;;;;;;;16.44;100.00;99442.28;1771767;80;21734;-80
2022/07/26 02:32:54;;;;;;;15.40;12.00;;;;;;;16.48;100.00;99444.87;1780003;80;21193;-80
2022/07/26 02:35:59;;;;;;;13.70;10.10;;;;;;;16.65;100.00;99440.04;1784854;80;21776;-80
2022/07/26 02:39:05;;;;;;;15.32;9.00;;;;;;;16.87;100.00;99445.34;1785703;80;21196;-81
2022/07/26 02:42:08;;;;;;;15.32;9.28;;;;;;;17.15;100.00;99452.09;1785697;80;21749;-79
2022/07/26 02:45:15;;;;;;;12.60;8.63;;;;;;;17.44;100.00;99458.02;1784182;79;21192;-80
2022/07/26 02:48:20;;;;;;;10.25;8.78;;;;;;;17.68;100.00;99456.61;1785711;80;21184;-80
2022/07/26 02:51:27;;;;;;;12.95;8.75;;;;;;;17.91;100.00;99451.05;1784524;80;21781;-80
2022/07/26 02:54:32;;;;;;;10.93;8.68;;;;;;;18.12;100.00;99458.70;1785027;80;21538;-80
2022/07/26 02:57:38;;;;;;;13.85;7.70;;;;;;;18.38;100.00;99457.79;1785719;80;21713;-80
2022/07/26 03:00:45;;;;;;;12.43;7.50;;;;;;;18.62;100.00;99454.35;1784323;80;21184;-80
2022/07/26 03:03:51;;;;;;;12.43;7.83;;;;;;;18.81;100.00;99453.61;1784213;80;21227;-82
2022/07/26 03:06:56;;;;;;;16.62;8.90;;;;;;;18.93;100.00;99447.45;1785750;80;21632;-80
2022/07/26 03:10:02;;;;;;;11.50;9.15;;;;;;;19.03;100.00;99452.32;1785586;80;21220;-80
2022/07/26 03:13:07;;;;;;;13.58;9.08;;;;;;;19.11;99.88;99452.74;1785697;80;21761;-80
2022/07/26 03:16:16;;;;;;;14.20;8.55;;;;;;;19.21;99.29;99445.13;1784878;80;21193;-81
2022/07/26 03:19:23;;;;;;;11.50;9.33;;;;;;;19.34;98.07;99445.33;1773096;80;21153;-81
2022/07/26 03:22:29;;;;;;;15.20;10.68;;;;;;;19.48;97.14;99453.58;1785705;80;21760;-80
2022/07/26 03:25:34;;;;;;;13.00;8.90;;;;;;;19.65;95.84;99458.55;1784640;80;22076;-80
2022/07/26 03:28:41;;;;;;;11.43;7.60;;;;;;;19.81;95.08;99465.72;1785715;79;21188;-81
2022/07/26 03:31:46;;;;;;;12.07;8.03;;;;;;;20.03;93.80;99463.76;1784386;80;21720;-80
2022/07/26 03:34:53;;;;;;;10.03;7.70;;;;;;;20.20;92.13;99465.64;1784961;80;21781;-81
2022/07/26 03:37:58;;;;;;;13.90;8.03;;;;;;;20.32;91.43;99469.92;1784538;80;21137;-81
2022/07/26 03:41:03;;;;;;;12.58;8.55;;;;;;;20.49;90.74;99469.88;1784291;80;21216;-81
2022/07/26 03:44:11;;;;;;;13.35;8.40;;;;;;;20.64;89.15;99471.41;1785708;79;21164;-80
2022/07/26 03:47:17;;;;;;;11.35;8.73;;;;;;;20.67;88.37;99465.90;1785805;80;21165;-80
2022/07/26 03:50:24;;;;;;;32.03;9.43;;;;;;;20.66;87.77;99469.23;1785344;80;21184;-81
2022/07/26 03:53:29;;;;;;;14.05;9.00;;;;;;;20.65;87.81;99469.47;1785713;80;21133;-81
2022/07/26 03:56:37;;;;;;;9.93;8.25;;;;;;;20.62;87.45;99474.19;1784600;80;21788;-80
2022/07/26 03:59:43;;;;;;;11.33;8.53;;;;;;;20.63;87.63;99473.91;1784410;79;21188;-81
2022/07/26 04:02:49;;;;;;;12.63;8.65;;;;;;;20.68;87.26;99474.52;1785672;80;21713;-81
2022/07/26 04:05:54;;;;;;;11.97;8.48;;;;;;;20.76;87.22;99478.77;1784578;80;21161;-81
2022/07/26 04:09:01;;;;;;;17.02;9.60;;;;;;;20.80;86.70;99476.59;1785886;80;21160;-81
2022/07/26 04:12:06;;;;;;;21.55;11.73;;;;;;;20.85;86.87;99474.41;1785868;80;21165;-80
2022/07/26 04:15:14;;;;;;;13.85;10.80;;;;;;;20.93;86.41;99471.12;1785452;79;21796;-81
2022/07/26 04:18:20;;;;;;;12.65;10.35;;;;;;;20.98;85.79;99466.16;1785883;80;21134;-81
2022/07/26 04:21:26;;;;;;;16.27;10.65;;;;;;;21.02;85.34;99465.37;1785732;80;21204;-81
2022/07/26 04:24:31;;;;;;;17.23;10.93;;;;;;;21.11;85.40;99457.38;1785950;80;21169;-80
2022/07/26 04:27:37;;;;;;;18.25;11.18;;;;;;;21.24;84.77;99463.88;1785761;80;21204;-81
2022/07/26 04:30:43;;;;;;;15.35;9.13;;;;;;;21.37;84.32;99466.80;1785614;79;21184;-80
2022/07/26 04:33:48;;;;;;;19.82;9.28;;;;;;;21.43;83.87;99464.33;1783819;80;21766;-81
2022/07/26 04:36:53;;;;;;;12.30;8.45;;;;;;;21.53;84.05;99464.38;1770611;81;21173;-80
2022/07/26 04:39:59;;;;;;;12.30;8.58;;;;;;;21.68;83.51;99467.80;1771862;81;21192;-80
2022/07/26 04:43:04;;;;;;;12.75;8.98;;;;;;;21.76;81.87;99467.86;1772159;81;21158;-81
2022/07/26 04:46:06;;;;;;;11.20;8.63;;;;;;;21.81;81.23;99462.31;1771024;80;21189;-80
2022/07/26 04:49:12;;;;;;;16.15;10.05;;;;;;;21.84;80.86;99468.75;1769418;81;21145;-80
2022/07/26 04:52:17;;;;;;;15.35;9.45;;;;;;;21.86;79.64;99468.74;1769395;81;21165;-79
2022/07/26 04:55:22;;;;;;;20.25;9.65;;;;;;;21.86;79.66;99465.13;1768818;81;21189;-81
2022/07/26 04:58:28;;;;;;;13.10;9.33;;;;;;;21.92;80.00;99465.42;1775787;80;21161;-81
2022/07/26 05:01:32;;;;;;;20.50;9.73;;;;;;;21.94;79.76;99471.58;1786071;80;21192;-80
2022/07/26 05:04:38;;;;;;;15.00;9.73;;;;;;;21.95;79.43;99469.06;1763178;80;21230;-81
2022/07/26 05:07:49;;;;;;;17.32;9.70;;;;;;;22.01;79.28;99469.92;1740079;82;21156;-81
2022/07/26 05:10:55;;;;;;;17.75;9.80;;;;;;;22.08;79.98;99468.58;1739411;82;21206;-81
2022/07/26 05:13:55;;;;;;;15.45;10.68;;;;;;;22.12;79.55;99467.52;1740195;82;21211;-80
2022/07/26 05:17:00;;;;;;;20.10;11.60;;;;;;;22.05;79.23;99460.75;1739630;82;21223;-81
2022/07/26 05:20:07;;;;;;;17.32;12.47;;;;;;;21.98;80.09;99464.36;1732582;81;21203;-80
2022/07/26 05:23:15;;;;;;;22.05;11.03;;;;;;;21.91;79.43;99470.72;1729591;83;21172;-80
2022/07/26 05:26:20;;;;;;;17.85;10.00;;;;;;;21.86;80.01;99472.92;1728287;83;21235;-80
2022/07/26 05:29:25;;;;;;;16.20;9.83;;;;;;;21.92;80.46;99469.08;1729492;83;21170;-80
2022/07/26 05:32:30;;;;;;;17.87;8.90;;;;;;;22.02;80.25;99464.62;1728890;80;21224;-80
2022/07/26 05:35:35;;;;;;;14.68;9.60;;;;;;;22.13;80.31;99468.63;1730750;81;21188;-80
2022/07/26 05:38:41;;;;;;;15.72;9.78;;;;;;;22.29;79.55;99472.84;1753065;81;21154;-80
2022/07/26 05:41:48;;;;;;;15.05;9.35;;;;;;;22.41;78.17;99465.09;1751203;81;21146;-81
2022/07/26 05:44:53;;;;;;;16.93;8.68;;;;;;;22.53;78.43;99463.44;1755973;81;21215;-81
2022/07/26 05:47:59;;;;;;;10.03;8.23;;;;;;;22.65;76.59;99464.03;1760882;81;21165;-81
2022/07/26 05:51:04;;;;;;;17.30;8.85;;;;;;;22.69;75.45;99459.58;1756918;81;21157;-81
2022/07/26 05:54:10;;;;;;;11.38;7.78;;;;;;;22.69;75.20;99456.23;1751070;81;21169;-81
2022/07/26 05:57:17;;;;;;;11.28;8.08;;;;;;;22.78;75.59;99450.12;1693712;84;21169;-82
2022/07/26 06:00:23;;;;;;;15.68;8.55;;;;;;;22.92;75.26;99449.88;1711405;83;21209;-80
2022/07/26 06:03:30;;;;;;;12.45;9.08;;;;;;;23.06;75.41;99452.95;1708924;83;21206;-80
2022/07/26 06:06:36;;;;;;;18.57;8.55;;;;;;;23.19;72.95;99456.55;1710878;83;21166;-81
2022/07/26 06:09:41;;;;;;;13.60;8.90;;;;;;;23.28;71.98;99449.84;1711641;83;21150;-81
2022/07/26 06:12:48;;;;;;;11.33;7.33;;;;;;;23.35;71.96;99455.99;1715710;83;21831;-81
2022/07/26 06:15:53;;;;;;;11.90;7.80;;;;;;;23.45;70.90;99464.34;1712385;83;21169;-80
2022/07/26 06:18:58;;;;;;;10.95;7.30;;;;;;;23.56;70.22;99452.59;1712021;83;21164;-79
2022/07/26 06:22:11;;;;;;;19.82;8.45;;;;;;;23.60;69.55;99465.70;1710945;83;21147;-80
2022/07/26 06:25:12;;;;;;;16.12;8.65;;;;;;;23.65;69.10;99462.09;1712422;83;21213;-80
2022/07/26 06:28:18;;;;;;;14.65;8.13;;;;;;;23.75;70.12;99457.05;1708099;83;21166;-80
2022/07/26 06:31:28;;;;;;;12.65;9.30;;;;;;;23.89;70.06;99460.34;1710873;83;21205;-80
2022/07/26 06:34:33;;;;;;;14.70;8.38;;;;;;;24.03;69.72;99463.36;1707555;83;21153;-80
2022/07/26 06:37:39;;;;;;;20.25;9.63;;;;;;;24.19;69.26;99458.00;1712645;82;21179;-79
2022/07/26 06:40:44;;;;;;;18.98;9.48;;;;;;;24.40;68.54;99468.53;1694982;83;21146;-80
2022/07/26 06:43:50;;;;;;;17.73;8.75;;;;;;;24.51;66.58;99456.72;1713402;83;21191;-80
2022/07/26 06:46:54;;;;;;;14.78;8.35;;;;;;;24.59;67.68;99463.67;1714748;82;21694;-79
2022/07/26 06:49:58;;;;;;;12.60;8.43;;;;;;;24.65;67.46;99460.55;1714020;83;21185;-80
2022/07/26 06:53:04;;;;;;;15.30;8.48;;;;;;;24.62;67.30;99462.55;1712325;83;21172;-80
2022/07/26 06:56:12;;;;;;;16.50;8.85;;;;;;;24.48;66.72;99459.55;1710937;83;21893;-80
2022/07/26 06:59:19;;;;;;;15.08;8.65;;;;;;;24.41;66.87;99459.58;1719239;83;21738;-82
2022/07/26 07:02:25;;;;;;;13.38;8.83;;;;;;;24.35;65.68;99466.30;1725662;83;21174;-80
2022/07/26 07:05:31;;;;;;;16.35;6.42;;;;;;;24.30;65.89;99463.53;1699702;83;21221;-80
2022/07/26 07:08:37;;;;;;;19.62;8.20;;;;;;;24.35;65.75;99460.71;1700631;83;21154;-80
2022/07/26 07:11:36;;;;;;;15.43;8.20;;;;;;;24.43;65.45;99457.35;1710900;83;21173;-81
2022/07/26 07:14:28;;;;;;;11.00;7.15;;;;;;;24.51;66.16;99462.88;1710407;83;21224;-80
2022/07/26 07:17:33;;;;;;;13.10;7.50;;;;;;;24.61;65.41;99451.66;1709485;83;21183;-81
2022/07/26 07:20:39;;;;;;;13.95;7.00;;;;;;;24.77;64.82;99459.37;1712401;83;21745;-81
2022/07/26 07:23:46;;;;;;;17.52;7.90;;;;;;;24.89;62.64;99454.23;1711563;83;21162;-80
2022/07/26 07:26:52;;;;;;;10.82;6.72;;;;;;;24.94;63.92;99454.22;1713724;83;21173;-81
2022/07/26 07:29:58;;;;;;;15.05;6.42;;;;;;;25.05;63.48;99453.56;1714344;83;21217;-81
2022/07/26 07:33:08;;;;;;;8.08;6.25;;;;;;;25.01;62.61;99456.09;1723086;82;21767;-81
2022/07/26 07:36:13;;;;;;;9.97;5.33;;;;;;;24.91;62.60;99458.41;1712727;83;21221;-81
2022/07/26 07:39:19;;;;;;;12.10;4.65;;;;;;;24.77;62.63;99456.58;1711149;83;21155;-81
2022/07/26 07:42:26;;;;;;;13.88;5.20;;;;;;;24.65;62.22;99458.31;1717365;83;21229;-80
2022/07/26 07:45:32;;;;;;;6.67;4.55;;;;;;;24.60;62.04;99449.97;1719361;83;21206;-79
2022/07/26 07:48:39;;;;;;;9.60;5.42;;;;;;;24.68;61.70;99455.78;1713985;83;21159;-81
2022/07/26 07:51:46;;;;;;;9.43;5.17;;;;;;;24.85;61.20;99449.80;1714030;83;21305;-80
2022/07/26 07:54:53;;;;;;;10.80;4.42;;;;;;;25.02;61.36;99449.94;1709426;83;21209;-81
2022/07/26 07:58:00;;;;;;;8.68;4.20;;;;;;;25.17;58.63;99450.70;1709868;83;21197;-81
2022/07/26 08:01:06;;;;;;;11.30;5.33;;;;;;;25.25;59.30;99450.61;1713926;83;21197;-81
2022/07/26 08:04:13;;;;;;;6.03;4.75;;;;;;;25.32;57.26;99446.91;1758509;81;21153;-81
2022/07/26 08:07:19;;;;;;;11.10;4.25;;;;;;;25.36;56.54;99438.73;1768074;80;21158;-81
2022/07/26 08:10:28;;;;;;;5.28;3.67;;;;;;;25.23;57.02;99444.48;1752778;81;21149;-81
2022/07/26 08:13:36;;;;;;;8.13;4.55;;;;;;;25.21;57.37;99448.95;1755193;80;21307;-80
2022/07/26 08:16:43;;;;;;;6.92;4.22;;;;;;;25.15;57.59;99443.70;1751156;80;21224;-81
2022/07/26 08:19:50;;;;;;;6.87;4.78;;;;;;;25.15;56.91;99438.11;1754568;80;21227;-81
2022/07/26 08:22:57;;;;;;;8.70;4.67;;;;;;;25.17;56.85;99436.70;1755672;81;21204;-80
2022/07/26 08:26:03;;;;;;;6.37;4.75;;;;;;;25.28;57.00;99445.00;1757387;81;21202;-80
2022/07/26 08:29:09;;;;;;;7.15;4.15;;;;;;;25.44;56.38;99438.11;1757206;81;21146;-81
2022/07/26 08:32:15;;;;;;;7.60;4.25;;;;;;;25.66;56.07;99436.20;1759557;81;21709;-81
2022/07/26 08:35:22;;;;;;;6.95;4.10;;;;;;;25.77;53.96;99445.34;1758124;81;21142;-81
2022/07/26 08:38:27;;;;;;;8.95;4.65;;;;;;;25.64;54.01;99435.11;1723188;82;21212;-80
2022/07/26 08:41:32;;;;;;;4.40;3.33;;;;;;;25.58;54.22;99422.28;1767277;81;21150;-80
2022/07/26 08:44:38;;;;;;;4.90;3.83;;;;;;;25.71;53.26;99422.97;1757976;80;21626;-82
2022/07/26 08:47:44;;;;;;;10.00;3.17;;;;;;;25.83;53.01;99420.34;1761621;80;21209;-80
2022/07/26 08:50:53;;;;;;;9.95;3.20;;;;;;;25.96;51.70;99422.42;1751778;80;21153;-81
2022/07/26 08:54:01;;;;;;;4.00;3.25;;;;;;;26.06;51.47;99418.66;1757485;80;21165;-80
2022/07/26 08:57:07;;;;;;;8.43;3.22;;;;;;;26.05;50.02;99418.39;1770145;81;21208;-80
2022/07/26 09:00:31;;;;;;;4.08;2.65;;;;;;;26.00;50.81;99415.09;1765380;80;21169;-81
2022/07/26 09:03:39;;;;;;;6.87;2.52;;;;;;;25.97;51.73;99411.48;1759625;81;21137;-80
2022/07/26 09:06:46;;;;;;;9.68;2.40;;;;;;;25.94;51.08;99409.30;1766815;81;21154;-79
2022/07/26 09:10:06;;;;;;;3.87;2.30;;;;;;;25.81;51.81;99404.41;1767138;81;21188;-80
2022/07/26 09:13:12;;;;;;;4.97;2.40;;;;;;;25.86;51.62;99397.34;1740549;82;21174;-79
2022/07/26 09:16:19;;;;;;;4.03;2.75;;;;;;;25.91;50.47;99405.68;1747315;81;21171;-79
2022/07/26 09:19:28;;;;;;;5.00;2.40;;;;;;;25.88;49.86;99401.53;1770254;81;21738;-80
2022/07/26 09:22:32;;;;;;;6.70;2.15;;;;;;;25.95;48.13;99394.15;1734796;82;21189;-79
2022/07/26 09:25:42;;;;;;;3.85;2.50;;;;;;;26.16;48.13;99392.75;1775827;80;21177;-80
2022/07/26 09:28:47;;;;;;;4.03;2.47;;;;;;;26.37;47.10;99393.85;1705542;84;21773;-80
2022/07/26 09:31:54;;;;;;;4.40;2.20;;;;;;;26.50;47.94;99393.95;1762996;80;21153;-80
2022/07/26 09:35:02;;;;;;;5.47;1.92;;;;;;;26.48;47.45;99400.42;1755536;80;21234;-80
2022/07/26 09:38:09;;;;;;;4.80;2.37;;;;;;;26.35;47.26;99410.12;1697565;84;21710;-79
2022/07/26 09:41:35;;;;;;;3.50;2.25;;;;;;;26.22;47.40;99413.95;1716571;82;21720;-80
2022/07/26 09:44:41;;;;;;;3.58;2.05;;;;;;;26.24;47.49;99411.67;1731530;83;21214;-80
2022/07/26 09:47:46;;;;;;;2.77;1.87;;;;;;;26.43;48.29;99399.67;1698869;83;21727;-80
2022/07/26 09:50:54;;;;;;;7.35;2.15;;;;;;;26.67;47.21;99394.80;1730553;83;21218;-80
2022/07/26 09:53:53;;;;;;;2.45;1.72;;;;;;;26.90;46.84;99395.83;1730723;83;21497;-79
2022/07/26 09:56:59;;;;;;;7.03;1.87;;;;;;;26.95;44.90;99395.74;1730689;83;21407;-80
2022/07/26 10:00:04;;;;;;;4.00;2.10;;;;;;;26.90;45.21;99404.25;1730861;82;21771;-80
2022/07/26 10:03:10;;;;;;;3.83;2.10;;;;;;;26.74;45.09;99413.49;1731202;83;21170;-80
2022/07/26 10:06:18;;;;;;;2.55;2.10;;;;;;;26.50;46.28;99402.95;1731039;83;21233;-80
2022/07/26 10:09:25;;;;;;;3.95;1.90;;;;;;;26.31;46.84;99407.69;1717418;83;21244;-80
2022/07/26 10:12:32;;;;;;;2.45;1.90;;;;;;;26.27;45.64;99396.81;1730110;82;21210;-80
2022/07/26 10:15:51;;;;;;;3.77;2.50;;;;;;;26.23;45.24;99395.17;1730860;83;21823;-80
2022/07/26 10:18:57;;;;;;;4.33;2.20;;;;;;;26.33;45.65;99404.00;1730270;82;21170;-80
2022/07/26 10:22:08;;;;;;;8.53;2.40;;;;;;;26.32;46.07;99400.36;1730748;83;21206;-80
2022/07/26 10:25:30;;;;;;;9.70;3.17;;;;;;;26.25;48.71;99402.16;1731036;83;21237;-80
2022/07/26 10:28:37;;;;;;;6.08;3.47;;;;;;;26.01;49.25;99402.74;1737761;80;21228;-81
2022/07/26 10:31:42;;;;;;;5.80;3.60;;;;;;;25.56;51.34;99409.16;1777303;80;21723;-81
2022/07/26 10:34:48;;;;;;;5.90;3.33;;;;;;;25.25;52.80;99403.03;1781456;79;21156;-80
2022/07/26 10:38:19;;;;;;;10.35;2.95;;;;;;;25.22;53.85;99401.67;1776977;79;21219;-81
2022/07/26 10:41:28;;;;;;;7.85;3.80;;;;;;;25.34;53.77;99406.02;1791972;79;21741;-81
2022/07/26 10:44:37;;;;;;;8.08;3.60;;;;;;;25.52;52.44;99399.67;1785755;80;21137;-81
2022/07/26 10:47:43;;;;;;;4.55;2.90;;;;;;;25.67;52.96;99383.26;1783370;80;21141;-81
2022/07/26 10:50:51;;;;;;;5.20;2.90;;;;;;;25.83;50.32;99382.52;1783534;80;21176;-81
2022/07/26 10:54:07;;;;;;;9.40;3.27;;;;;;;25.91;49.95;99385.50;1782430;80;21770;-81
2022/07/26 10:57:13;;;;;;;4.47;3.00;;;;;;;25.94;48.30;99389.69;1784130;80;21185;-81
2022/07/26 11:00:33;;;;;;;5.17;3.12;;;;;;;25.80;48.17;99403.58;1784262;80;21204;-81
2022/07/26 11:03:46;;;;;;;4.05;2.62;;;;;;;25.69;48.70;99403.42;1785093;80;21144;-81
2022/07/26 11:06:52;;;;;;;5.55;2.55;;;;;;;25.62;48.28;99404.33;1784725;80;21731;-81
2022/07/26 11:10:04;;;;;;;4.97;2.75;;;;;;;25.51;48.38;99406.41;1785387;80;21161;-81
2022/07/26 11:13:12;;;;;;;6.17;2.67;;;;;;;25.40;49.06;99410.43;1785639;80;21571;-81
2022/07/26 11:16:18;;;;;;;6.95;2.80;;;;;;;25.22;49.21;99415.66;1789807;80;21212;-81
2022/07/26 11:19:29;;;;;;;4.75;2.50;;;;;;;25.06;49.53;99416.89;1799502;80;21156;-82
2022/07/26 11:22:41;;;;;;;2.45;2.25;;;;;;;24.94;49.70;99414.48;1798697;80;21728;-81
2022/07/26 11:25:47;;;;;;;4.90;2.30;;;;;;;24.90;49.12;99420.95;1798745;80;21752;-80
2022/07/26 11:29:07;;;;;;;4.42;2.45;;;;;;;24.85;49.71;99418.20;1799157;80;21152;-81
2022/07/26 11:32:15;;;;;;;5.22;2.10;;;;;;;24.81;50.33;99405.36;1798501;80;21196;-81
2022/07/26 11:35:22;;;;;;;5.72;1.82;;;;;;;24.91;49.99;99403.05;1797981;80;21736;-80
2022/07/26 11:38:28;;;;;;;3.67;2.00;;;;;;;25.04;49.00;99397.34;1798228;80;21180;-81
2022/07/26 11:41:34;;;;;;;3.22;1.90;;;;;;;25.21;47.58;99409.77;1795360;80;21753;-81
2022/07/26 11:44:41;;;;;;;8.38;2.05;;;;;;;25.41;46.63;99400.36;1787990;80;21137;-82
2022/07/26 11:47:47;;;;;;;2.75;2.00;;;;;;;25.56;45.67;99395.72;1788004;80;21144;-81
2022/07/26 11:50:54;;;;;;;3.20;1.55;;;;;;;25.67;46.49;99402.30;1773447;80;21185;-81
2022/07/26 11:54:01;;;;;;;3.58;2.00;;;;;;;25.72;47.92;99384.02;1771956;81;21193;-81
2022/07/26 11:57:11;;;;;;;2.08;1.90;;;;;;;25.79;48.20;99416.50;1770539;81;21189;-81
2022/07/26 12:00:18;;;;;;;6.33;2.37;;;;;;;25.83;48.42;99390.92;1771723;80;21797;-81
2022/07/26 12:03:24;;;;;;;3.45;2.80;;;;;;;25.88;48.07;99385.29;1770369;81;21169;-81
2022/07/26 12:06:33;;;;;;;5.92;2.83;;;;;;;25.83;49.13;99390.92;1769870;81;22140;-81
2022/07/26 12:09:53;;;;;;;3.92;2.30;;;;;;;25.69;49.65;99388.02;1770301;81;21190;-81
2022/07/26 12:13:19;;;;;;;3.12;2.08;;;;;;;25.55;48.87;99392.09;1770316;81;21189;-80
2022/07/26 12:16:47;;;;;;;6.20;2.25;;;;;;;25.40;49.23;99388.04;1769969;81;21197;-80
2022/07/26 12:19:46;;;;;;;4.35;2.15;;;;;;;25.34;49.90;99394.27;1772681;80;21185;-80
2022/07/26 12:22:46;;;;;;;3.45;2.17;;;;;;;25.31;48.20;99396.81;1772658;80;21176;-80
2022/07/26 12:25:51;;;;;;;3.62;1.92;;;;;;;25.29;47.19;99407.48;1787487;80;21794;-81
2022/07/26 12:28:51;;;;;;;3.83;2.30;;;;;;;25.19;46.36;99391.06;1787418;80;21749;-80
2022/07/26 12:32:10;;;;;;;4.95;2.20;;;;;;;25.09;46.62;99403.75;1742870;80;21774;-80
2022/07/26 12:35:24;;;;;;;5.20;2.60;;;;;;;24.94;46.61;99399.67;1778365;80;21224;-80
2022/07/26 12:38:29;;;;;;;3.72;2.05;;;;;;;24.75;48.68;99379.98;1771685;81;21894;-80
2022/07/26 12:41:42;;;;;;;5.65;2.33;;;;;;;24.66;49.30;99383.95;1772551;80;21189;-80
2022/07/26 12:44:48;;;;;;;4.42;2.02;;;;;;;24.54;48.92;99392.43;1785884;80;21191;-78
2022/07/26 12:47:55;;;;;;;13.32;2.30;;;;;;;24.43;47.74;99419.63;1791619;79;21183;-81
2022/07/26 12:51:03;;;;;;;2.70;1.65;;;;;;;24.37;47.70;99409.58;1794207;79;21254;-81
2022/07/26 12:54:08;;;;;;;2.95;1.80;;;;;;;24.40;46.44;99420.19;1773094;79;21203;-81
2022/07/26 12:57:16;;;;;;;7.85;1.60;;;;;;;24.45;45.91;99417.36;1796553;79;21155;-81
2022/07/26 13:00:22;;;;;;;3.20;1.62;;;;;;;24.54;45.41;99424.02;1784130;80;21565;-81
2022/07/26 13:03:27;;;;;;;5.15;1.80;;;;;;;24.63;42.80;99436.25;1784587;80;21722;-81
2022/07/26 13:06:33;;;;;;;2.17;1.75;;;;;;;24.69;43.75;99433.68;1784476;80;21274;-81
2022/07/26 13:09:38;;;;;;;5.33;2.05;;;;;;;24.74;44.55;99439.23;1784943;79;21196;-81
2022/07/26 13:12:44;;;;;;;5.72;2.00;;;;;;;24.81;45.58;99442.28;1783889;80;21821;-81
2022/07/26 13:15:50;;;;;;;2.55;2.00;;;;;;;24.85;45.12;99443.38;1783748;80;21227;-81
2022/07/26 13:18:57;;;;;;;4.67;2.37;;;;;;;24.78;48.60;99452.64;1782629;79;21164;-81
2022/07/26 13:22:04;;;;;;;3.67;2.22;;;;;;;24.62;53.05;99448.56;1784175;80;21781;-82
2022/07/26 13:25:08;;;;;;;3.15;2.12;;;;;;;24.47;53.02;99457.89;1784140;79;21173;-81
2022/07/26 13:28:14;;;;;;;3.10;2.10;;;;;;;24.39;52.47;99454.86;1785141;80;21169;-81
2022/07/26 13:31:20;;;;;;;4.67;2.47;;;;;;;24.35;52.35;99435.00;1784457;80;21176;-81
2022/07/26 13:34:25;;;;;;;3.77;2.65;;;;;;;24.34;52.84;99420.76;1784344;80;21137;-81
2022/07/26 13:37:33;;;;;;;4.30;2.62;;;;;;;24.34;52.54;99417.96;1785720;80;21145;-81
2022/07/26 13:40:40;;;;;;;3.42;2.30;;;;;;;24.36;52.52;99409.28;1785516;79;21188;-81
2022/07/26 13:43:46;;;;;;;7.25;2.27;;;;;;;24.37;52.24;99415.16;1781220;80;21201;-81
2022/07/26 13:46:52;;;;;;;3.65;2.00;;;;;;;24.35;51.97;99416.83;1770631;81;21212;-81
2022/07/26 13:49:58;;;;;;;3.25;2.27;;;;;;;24.37;51.80;99420.76;1771937;81;21208;-81
2022/07/26 13:53:05;;;;;;;2.17;1.50;;;;;;;24.36;50.12;99424.11;1771878;81;21829;-81
2022/07/26 13:56:10;;;;;;;3.15;1.65;;;;;;;24.30;47.78;99417.43;1771085;81;21516;-81
2022/07/26 13:59:17;;;;;;;3.30;1.72;;;;;;;24.25;47.22;99418.30;1771982;81;21169;-81
2022/07/26 14:02:24;;;;;;;2.80;1.40;;;;;;;24.23;47.06;99415.80;1771985;81;21146;-82
2022/07/26 14:05:29;;;;;;;2.87;1.87;;;;;;;24.24;46.87;99409.64;1771533;81;21189;-81
2022/07/26 14:08:37;;;;;;;2.80;1.50;;;;;;;24.26;46.61;99406.55;1772021;81;21570;-81
2022/07/26 14:11:37;;;;;;;2.62;1.80;;;;;;;24.23;45.77;99401.83;1770677;81;21197;-81
2022/07/26 14:14:31;;;;;;;3.22;1.70;;;;;;;24.21;46.23;99399.03;1770611;81;21200;-81
2022/07/26 14:17:36;;;;;;;2.30;1.70;;;;;;;24.23;46.28;99394.84;1771433;81;21722;-81
2022/07/26 14:20:35;;;;;;;4.97;1.40;;;;;;;24.26;45.81;99405.16;1773425;80;21203;-81
2022/07/26 14:23:41;;;;;;;3.35;1.65;;;;;;;24.29;46.00;99410.17;1776683;81;21144;-82
2022/07/26 14:26:47;;;;;;;3.70;1.25;;;;;;;24.32;45.85;99417.96;1775581;81;21786;-81
2022/07/26 14:29:55;;;;;;;4.22;2.52;;;;;;;24.33;46.57;99421.05;1776660;81;21220;-80